sensor_id;sensor_type;location;lat;lon;timestamp;temperature;humidity
546;DHT22;259;53.304;9.816;2022-08-20T00:00:25;22.30;99.90
546;DHT22;259;53.304;9.816;2022-08-20T00:02:54;22.30;99.90
546;DHT22;259;53.304;9.816;2022-08-20T00:05:26;22.30;99.90
546;DHT22;259;53.304;9.816;2022-08-20T00:07:53;22.20;99.90
546;DHT22;259;53.304;9.816;2022-08-20T00:10:19;22.20;99.90
546;DHT22;259;53.304;9.816;2022-08-20T00:12:46;22.30;99.90
546;DHT22;259;53.304;9.816;2022-08-20T00:15:15;22.20;99.90
546;DHT22;259;53.304;9.816;2022-08-20T00:17:41;22.20;99.90
546;DHT22;259;53.304;9.816;2022-08-20T00:20:11;22.20;99.90
546;DHT22;259;53.304;9.816;2022-08-20T00:22:38;22.20;99.90
546;DHT22;259;53.304;9.816;2022-08-20T00:25:04;22.20;99.90
546;DHT22;259;53.304;9.816;2022-08-20T00:27:30;22.20;99.90
546;DHT22;259;53.304;9.816;2022-08-20T00:29:56;22.20;99.90
546;DHT22;259;53.304;9.816;2022-08-20T00:32:22;22.20;99.90
546;DHT22;259;53.304;9.816;2022-08-20T00:34:48;22.20;99.90
546;DHT22;259;53.304;9.816;2022-08-20T00:37:13;22.20;99.90
546;DHT22;259;53.304;9.816;2022-08-20T00:39:39;22.20;99.90
546;DHT22;259;53.304;9.816;2022-08-20T00:42:05;22.20;99.90
546;DHT22;259;53.304;9.816;2022-08-20T00:44:31;22.10;99.90
546;DHT22;259;53.304;9.816;2022-08-20T00:46:57;22.20;99.90
546;DHT22;259;53.304;9.816;2022-08-20T00:49:28;22.10;99.90
546;DHT22;259;53.304;9.816;2022-08-20T00:52:11;22.20;99.90
546;DHT22;259;53.304;9.816;2022-08-20T00:54:42;22.10;99.90
546;DHT22;259;53.304;9.816;2022-08-20T00:59:42;22.10;99.90
546;DHT22;259;53.304;9.816;2022-08-20T01:02:11;22.10;99.90
546;DHT22;259;53.304;9.816;2022-08-20T01:04:38;22.10;99.80
546;DHT22;259;53.304;9.816;2022-08-20T01:07:04;22.00;99.80
546;DHT22;259;53.304;9.816;2022-08-20T01:09:31;22.10;99.80
546;DHT22;259;53.304;9.816;2022-08-20T01:11:56;22.00;99.80
546;DHT22;259;53.304;9.816;2022-08-20T01:14:22;22.00;99.70
546;DHT22;259;53.304;9.816;2022-08-20T01:17:06;22.00;99.70
546;DHT22;259;53.304;9.816;2022-08-20T01:19:37;22.00;99.70
546;DHT22;259;53.304;9.816;2022-08-20T01:22:04;22.00;99.70
546;DHT22;259;53.304;9.816;2022-08-20T01:24:55;22.00;99.60
546;DHT22;259;53.304;9.816;2022-08-20T01:27:22;22.00;99.60
546;DHT22;259;53.304;9.816;2022-08-20T01:29:48;22.00;99.60
546;DHT22;259;53.304;9.816;2022-08-20T01:32:15;22.00;99.60
546;DHT22;259;53.304;9.816;2022-08-20T01:34:41;21.90;99.40
546;DHT22;259;53.304;9.816;2022-08-20T01:37:07;21.90;99.50
546;DHT22;259;53.304;9.816;2022-08-20T01:39:35;21.90;99.80
546;DHT22;259;53.304;9.816;2022-08-20T01:42:20;21.90;99.40
546;DHT22;259;53.304;9.816;2022-08-20T01:44:48;21.90;99.40
546;DHT22;259;53.304;9.816;2022-08-20T01:49:46;21.90;99.40
546;DHT22;259;53.304;9.816;2022-08-20T01:52:21;21.90;99.40
546;DHT22;259;53.304;9.816;2022-08-20T01:54:48;21.90;99.30
546;DHT22;259;53.304;9.816;2022-08-20T01:57:16;21.90;99.30
546;DHT22;259;53.304;9.816;2022-08-20T01:59:44;21.90;99.30
546;DHT22;259;53.304;9.816;2022-08-20T02:02:10;21.90;99.30
546;DHT22;259;53.304;9.816;2022-08-20T02:04:38;21.90;99.30
546;DHT22;259;53.304;9.816;2022-08-20T02:07:07;21.90;99.20
546;DHT22;259;53.304;9.816;2022-08-20T02:09:36;21.80;99.20
546;DHT22;259;53.304;9.816;2022-08-20T02:12:03;21.80;99.20
546;DHT22;259;53.304;9.816;2022-08-20T02:14:30;21.80;99.20
546;DHT22;259;53.304;9.816;2022-08-20T02:16:57;21.80;99.10
546;DHT22;259;53.304;9.816;2022-08-20T02:19:33;21.80;99.10
546;DHT22;259;53.304;9.816;2022-08-20T02:22:03;21.80;99.10
546;DHT22;259;53.304;9.816;2022-08-20T02:24:32;21.80;99.10
546;DHT22;259;53.304;9.816;2022-08-20T02:26:59;21.80;99.00
546;DHT22;259;53.304;9.816;2022-08-20T02:29:25;21.70;99.00
546;DHT22;259;53.304;9.816;2022-08-20T02:31:51;21.70;98.90
546;DHT22;259;53.304;9.816;2022-08-20T02:34:18;21.70;98.80
546;DHT22;259;53.304;9.816;2022-08-20T02:36:44;21.70;98.80
546;DHT22;259;53.304;9.816;2022-08-20T02:39:11;21.70;98.70
546;DHT22;259;53.304;9.816;2022-08-20T02:41:37;21.70;98.80
546;DHT22;259;53.304;9.816;2022-08-20T02:44:04;21.70;98.70
546;DHT22;259;53.304;9.816;2022-08-20T02:46:31;21.70;98.70
546;DHT22;259;53.304;9.816;2022-08-20T02:48:57;21.70;98.60
546;DHT22;259;53.304;9.816;2022-08-20T02:51:23;21.60;98.60
546;DHT22;259;53.304;9.816;2022-08-20T02:53:49;21.60;98.60
546;DHT22;259;53.304;9.816;2022-08-20T02:56:15;21.60;98.60
546;DHT22;259;53.304;9.816;2022-08-20T02:58:41;21.60;98.60
546;DHT22;259;53.304;9.816;2022-08-20T03:01:09;21.60;98.60
546;DHT22;259;53.304;9.816;2022-08-20T03:03:37;21.60;98.50
546;DHT22;259;53.304;9.816;2022-08-20T03:06:03;21.60;98.40
546;DHT22;259;53.304;9.816;2022-08-20T03:08:29;21.60;98.40
546;DHT22;259;53.304;9.816;2022-08-20T03:10:55;21.60;98.40
546;DHT22;259;53.304;9.816;2022-08-20T03:13:21;21.60;98.30
546;DHT22;259;53.304;9.816;2022-08-20T03:15:50;21.60;98.40
546;DHT22;259;53.304;9.816;2022-08-20T03:18:18;21.60;98.40
546;DHT22;259;53.304;9.816;2022-08-20T03:20:45;21.60;98.30
546;DHT22;259;53.304;9.816;2022-08-20T03:23:11;21.60;98.30
546;DHT22;259;53.304;9.816;2022-08-20T03:25:37;21.50;98.20
546;DHT22;259;53.304;9.816;2022-08-20T03:28:03;21.50;98.40
546;DHT22;259;53.304;9.816;2022-08-20T03:30:29;21.50;98.30
546;DHT22;259;53.304;9.816;2022-08-20T03:32:56;21.50;98.20
546;DHT22;259;53.304;9.816;2022-08-20T03:35:24;21.50;98.30
546;DHT22;259;53.304;9.816;2022-08-20T03:37:50;21.40;98.20
546;DHT22;259;53.304;9.816;2022-08-20T03:40:24;21.40;98.20
546;DHT22;259;53.304;9.816;2022-08-20T03:42:50;21.40;98.20
546;DHT22;259;53.304;9.816;2022-08-20T03:45:18;21.40;98.30
546;DHT22;259;53.304;9.816;2022-08-20T03:47:44;21.40;98.30
546;DHT22;259;53.304;9.816;2022-08-20T03:50:11;21.40;98.30
546;DHT22;259;53.304;9.816;2022-08-20T03:52:37;21.40;98.30
546;DHT22;259;53.304;9.816;2022-08-20T03:55:05;21.30;98.30
546;DHT22;259;53.304;9.816;2022-08-20T03:57:31;21.30;98.30
546;DHT22;259;53.304;9.816;2022-08-20T03:59:56;21.30;98.30
546;DHT22;259;53.304;9.816;2022-08-20T04:02:22;21.30;98.30
546;DHT22;259;53.304;9.816;2022-08-20T04:04:49;21.30;98.30
546;DHT22;259;53.304;9.816;2022-08-20T04:07:18;21.30;98.40
546;DHT22;259;53.304;9.816;2022-08-20T04:09:51;21.30;98.40
546;DHT22;259;53.304;9.816;2022-08-20T04:12:17;21.30;98.50
546;DHT22;259;53.304;9.816;2022-08-20T04:14:43;21.30;98.50
546;DHT22;259;53.304;9.816;2022-08-20T04:17:10;21.30;98.50
546;DHT22;259;53.304;9.816;2022-08-20T04:19:37;21.30;98.50
546;DHT22;259;53.304;9.816;2022-08-20T04:22:03;21.30;98.50
546;DHT22;259;53.304;9.816;2022-08-20T04:24:30;21.30;98.50
546;DHT22;259;53.304;9.816;2022-08-20T04:26:56;21.30;98.50
546;DHT22;259;53.304;9.816;2022-08-20T04:29:22;21.30;98.40
546;DHT22;259;53.304;9.816;2022-08-20T04:31:49;21.30;98.40
546;DHT22;259;53.304;9.816;2022-08-20T04:34:14;21.30;98.50
546;DHT22;259;53.304;9.816;2022-08-20T04:36:43;21.30;98.50
546;DHT22;259;53.304;9.816;2022-08-20T04:39:11;21.30;98.50
546;DHT22;259;53.304;9.816;2022-08-20T04:41:37;21.30;98.60
546;DHT22;259;53.304;9.816;2022-08-20T04:44:02;21.30;98.60
546;DHT22;259;53.304;9.816;2022-08-20T04:46:28;21.30;98.60
546;DHT22;259;53.304;9.816;2022-08-20T04:48:57;21.30;98.70
546;DHT22;259;53.304;9.816;2022-08-20T04:51:25;21.30;98.70
546;DHT22;259;53.304;9.816;2022-08-20T04:53:52;21.30;98.80
546;DHT22;259;53.304;9.816;2022-08-20T04:56:19;21.30;98.80
546;DHT22;259;53.304;9.816;2022-08-20T04:58:48;21.30;98.90
546;DHT22;259;53.304;9.816;2022-08-20T05:01:15;21.20;98.90
546;DHT22;259;53.304;9.816;2022-08-20T05:03:41;21.20;99.00
546;DHT22;259;53.304;9.816;2022-08-20T05:06:09;21.20;99.00
546;DHT22;259;53.304;9.816;2022-08-20T05:08:35;21.20;99.00
546;DHT22;259;53.304;9.816;2022-08-20T05:11:03;21.20;99.00
546;DHT22;259;53.304;9.816;2022-08-20T05:13:29;21.20;99.10
546;DHT22;259;53.304;9.816;2022-08-20T05:15:55;21.20;99.20
546;DHT22;259;53.304;9.816;2022-08-20T05:18:23;21.20;99.20
546;DHT22;259;53.304;9.816;2022-08-20T05:20:50;21.20;99.20
546;DHT22;259;53.304;9.816;2022-08-20T05:23:17;21.20;99.20
546;DHT22;259;53.304;9.816;2022-08-20T05:25:46;21.20;99.30
546;DHT22;259;53.304;9.816;2022-08-20T05:28:18;21.20;99.30
546;DHT22;259;53.304;9.816;2022-08-20T05:30:46;21.20;99.30
546;DHT22;259;53.304;9.816;2022-08-20T05:33:12;21.20;99.40
546;DHT22;259;53.304;9.816;2022-08-20T05:35:41;21.20;99.40
546;DHT22;259;53.304;9.816;2022-08-20T05:38:11;21.20;99.50
546;DHT22;259;53.304;9.816;2022-08-20T05:40:39;21.20;99.50
546;DHT22;259;53.304;9.816;2022-08-20T05:43:05;21.20;99.60
546;DHT22;259;53.304;9.816;2022-08-20T05:45:33;21.20;99.70
546;DHT22;259;53.304;9.816;2022-08-20T05:48:10;21.20;99.60
546;DHT22;259;53.304;9.816;2022-08-20T05:50:37;21.20;99.70
546;DHT22;259;53.304;9.816;2022-08-20T05:53:04;21.20;99.70
546;DHT22;259;53.304;9.816;2022-08-20T05:55:30;21.20;99.80
546;DHT22;259;53.304;9.816;2022-08-20T05:58:00;21.20;99.90
546;DHT22;259;53.304;9.816;2022-08-20T06:00:27;21.20;99.90
546;DHT22;259;53.304;9.816;2022-08-20T06:02:53;21.20;99.90
546;DHT22;259;53.304;9.816;2022-08-20T06:05:37;21.20;99.90
546;DHT22;259;53.304;9.816;2022-08-20T06:08:08;21.20;99.90
546;DHT22;259;53.304;9.816;2022-08-20T06:10:35;21.10;99.90
546;DHT22;259;53.304;9.816;2022-08-20T06:13:01;21.10;99.90
546;DHT22;259;53.304;9.816;2022-08-20T06:15:30;21.10;99.90
546;DHT22;259;53.304;9.816;2022-08-20T06:17:56;21.10;99.90
546;DHT22;259;53.304;9.816;2022-08-20T06:20:22;21.10;99.90
546;DHT22;259;53.304;9.816;2022-08-20T06:22:48;21.10;99.90
546;DHT22;259;53.304;9.816;2022-08-20T06:25:14;21.10;99.90
546;DHT22;259;53.304;9.816;2022-08-20T06:27:41;21.10;99.90
546;DHT22;259;53.304;9.816;2022-08-20T06:30:09;21.10;99.90
546;DHT22;259;53.304;9.816;2022-08-20T06:32:35;21.10;99.90
546;DHT22;259;53.304;9.816;2022-08-20T06:35:05;21.10;99.90
546;DHT22;259;53.304;9.816;2022-08-20T06:37:31;21.10;99.90
546;DHT22;259;53.304;9.816;2022-08-20T06:40:14;21.10;99.90
546;DHT22;259;53.304;9.816;2022-08-20T06:42:40;21.10;99.90
546;DHT22;259;53.304;9.816;2022-08-20T06:45:13;21.10;99.90
546;DHT22;259;53.304;9.816;2022-08-20T06:47:44;21.10;99.90
546;DHT22;259;53.304;9.816;2022-08-20T06:50:12;21.10;99.90
546;DHT22;259;53.304;9.816;2022-08-20T06:52:39;21.10;99.90
546;DHT22;259;53.304;9.816;2022-08-20T06:55:07;21.10;99.90
546;DHT22;259;53.304;9.816;2022-08-20T06:57:34;21.10;99.90
546;DHT22;259;53.304;9.816;2022-08-20T06:59:59;21.10;99.90
546;DHT22;259;53.304;9.816;2022-08-20T07:02:25;21.10;99.90
546;DHT22;259;53.304;9.816;2022-08-20T07:04:50;21.10;99.90
546;DHT22;259;53.304;9.816;2022-08-20T07:07:17;21.10;99.90
546;DHT22;259;53.304;9.816;2022-08-20T07:09:44;21.10;99.90
546;DHT22;259;53.304;9.816;2022-08-20T07:12:10;21.10;99.90
546;DHT22;259;53.304;9.816;2022-08-20T07:14:36;21.10;99.90
546;DHT22;259;53.304;9.816;2022-08-20T07:17:02;21.10;99.90
546;DHT22;259;53.304;9.816;2022-08-20T07:19:29;21.10;99.90
546;DHT22;259;53.304;9.816;2022-08-20T07:21:55;21.10;99.90
546;DHT22;259;53.304;9.816;2022-08-20T07:24:21;21.10;99.90
546;DHT22;259;53.304;9.816;2022-08-20T07:26:46;21.10;99.90
546;DHT22;259;53.304;9.816;2022-08-20T07:29:13;21.10;99.90
546;DHT22;259;53.304;9.816;2022-08-20T07:31:38;21.10;99.90
546;DHT22;259;53.304;9.816;2022-08-20T07:34:23;21.10;99.90
546;DHT22;259;53.304;9.816;2022-08-20T07:36:48;21.20;99.90
546;DHT22;259;53.304;9.816;2022-08-20T07:39:14;21.20;99.90
546;DHT22;259;53.304;9.816;2022-08-20T07:41:40;21.20;99.90
546;DHT22;259;53.304;9.816;2022-08-20T07:44:06;21.10;99.90
546;DHT22;259;53.304;9.816;2022-08-20T07:46:31;21.10;99.90
546;DHT22;259;53.304;9.816;2022-08-20T07:48:57;21.20;99.90
546;DHT22;259;53.304;9.816;2022-08-20T07:51:23;21.20;99.90
546;DHT22;259;53.304;9.816;2022-08-20T07:53:49;21.20;99.90
546;DHT22;259;53.304;9.816;2022-08-20T07:56:21;21.20;99.90
546;DHT22;259;53.304;9.816;2022-08-20T07:58:50;21.20;99.90
546;DHT22;259;53.304;9.816;2022-08-20T08:01:20;21.20;99.90
546;DHT22;259;53.304;9.816;2022-08-20T08:03:46;21.20;99.90
546;DHT22;259;53.304;9.816;2022-08-20T08:06:12;21.20;99.90
546;DHT22;259;53.304;9.816;2022-08-20T08:08:39;21.20;99.90
546;DHT22;259;53.304;9.816;2022-08-20T08:11:06;21.20;99.90
546;DHT22;259;53.304;9.816;2022-08-20T08:13:34;21.20;99.90
546;DHT22;259;53.304;9.816;2022-08-20T08:16:01;21.20;99.90
546;DHT22;259;53.304;9.816;2022-08-20T08:18:35;21.20;99.90
546;DHT22;259;53.304;9.816;2022-08-20T08:21:03;21.20;99.90
546;DHT22;259;53.304;9.816;2022-08-20T08:23:29;21.20;99.90
546;DHT22;259;53.304;9.816;2022-08-20T08:25:55;21.20;99.90
546;DHT22;259;53.304;9.816;2022-08-20T08:28:21;21.30;99.90
546;DHT22;259;53.304;9.816;2022-08-20T08:30:47;21.30;99.90
546;DHT22;259;53.304;9.816;2022-08-20T08:33:21;21.30;99.90
546;DHT22;259;53.304;9.816;2022-08-20T08:36:04;21.30;99.90
546;DHT22;259;53.304;9.816;2022-08-20T08:38:34;21.30;99.90
546;DHT22;259;53.304;9.816;2022-08-20T08:43:38;21.30;99.90
546;DHT22;259;53.304;9.816;2022-08-20T08:46:06;21.30;99.90
546;DHT22;259;53.304;9.816;2022-08-20T08:48:36;21.30;99.90
546;DHT22;259;53.304;9.816;2022-08-20T08:51:05;21.30;99.90
546;DHT22;259;53.304;9.816;2022-08-20T08:53:45;21.30;99.90
546;DHT22;259;53.304;9.816;2022-08-20T08:56:13;21.30;99.90
546;DHT22;259;53.304;9.816;2022-08-20T08:58:39;21.30;99.90
546;DHT22;259;53.304;9.816;2022-08-20T09:01:15;21.30;99.90
546;DHT22;259;53.304;9.816;2022-08-20T09:03:44;21.30;99.90
546;DHT22;259;53.304;9.816;2022-08-20T09:06:17;21.30;99.90
546;DHT22;259;53.304;9.816;2022-08-20T09:08:47;21.30;99.90
546;DHT22;259;53.304;9.816;2022-08-20T09:11:15;21.30;99.90
546;DHT22;259;53.304;9.816;2022-08-20T09:13:41;21.30;99.90
546;DHT22;259;53.304;9.816;2022-08-20T09:16:08;21.40;99.90
546;DHT22;259;53.304;9.816;2022-08-20T09:18:33;21.40;99.90
546;DHT22;259;53.304;9.816;2022-08-20T09:20:59;21.40;99.90
546;DHT22;259;53.304;9.816;2022-08-20T09:23:25;21.40;99.90
546;DHT22;259;53.304;9.816;2022-08-20T09:25:50;21.40;99.90
546;DHT22;259;53.304;9.816;2022-08-20T09:28:16;21.40;99.90
546;DHT22;259;53.304;9.816;2022-08-20T09:30:41;21.40;99.90
546;DHT22;259;53.304;9.816;2022-08-20T09:33:07;21.40;99.90
546;DHT22;259;53.304;9.816;2022-08-20T09:35:33;21.40;99.90
546;DHT22;259;53.304;9.816;2022-08-20T09:37:59;21.50;99.90
546;DHT22;259;53.304;9.816;2022-08-20T09:40:25;21.50;99.90
546;DHT22;259;53.304;9.816;2022-08-20T09:42:50;21.50;99.90
546;DHT22;259;53.304;9.816;2022-08-20T09:45:16;21.50;99.90
546;DHT22;259;53.304;9.816;2022-08-20T09:47:42;21.50;99.90
546;DHT22;259;53.304;9.816;2022-08-20T09:50:08;21.50;99.90
546;DHT22;259;53.304;9.816;2022-08-20T09:52:43;21.60;99.90
546;DHT22;259;53.304;9.816;2022-08-20T09:57:41;21.60;99.90
546;DHT22;259;53.304;9.816;2022-08-20T10:00:08;21.60;99.90
546;DHT22;259;53.304;9.816;2022-08-20T10:02:34;21.60;99.90
546;DHT22;259;53.304;9.816;2022-08-20T10:05:00;21.60;99.90
546;DHT22;259;53.304;9.816;2022-08-20T10:07:25;21.70;99.90
546;DHT22;259;53.304;9.816;2022-08-20T10:09:51;21.70;99.90
546;DHT22;259;53.304;9.816;2022-08-20T10:12:16;21.70;99.90
546;DHT22;259;53.304;9.816;2022-08-20T10:14:42;21.70;99.90
546;DHT22;259;53.304;9.816;2022-08-20T10:17:08;21.70;99.90
546;DHT22;259;53.304;9.816;2022-08-20T10:19:33;21.80;99.90
546;DHT22;259;53.304;9.816;2022-08-20T10:21:59;21.80;99.90
546;DHT22;259;53.304;9.816;2022-08-20T10:24:25;21.70;99.90
546;DHT22;259;53.304;9.816;2022-08-20T10:26:55;21.70;99.90
546;DHT22;259;53.304;9.816;2022-08-20T10:29:21;21.70;99.90
546;DHT22;259;53.304;9.816;2022-08-20T10:31:46;21.80;99.90
546;DHT22;259;53.304;9.816;2022-08-20T10:34:12;21.80;99.90
546;DHT22;259;53.304;9.816;2022-08-20T10:36:37;21.80;99.90
546;DHT22;259;53.304;9.816;2022-08-20T10:39:05;21.80;99.90
546;DHT22;259;53.304;9.816;2022-08-20T10:41:31;21.80;99.90
546;DHT22;259;53.304;9.816;2022-08-20T10:43:56;21.80;99.90
546;DHT22;259;53.304;9.816;2022-08-20T10:46:22;21.80;99.90
546;DHT22;259;53.304;9.816;2022-08-20T10:48:47;21.90;99.90
546;DHT22;259;53.304;9.816;2022-08-20T10:51:13;21.80;99.90
546;DHT22;259;53.304;9.816;2022-08-20T10:53:39;21.90;99.90
546;DHT22;259;53.304;9.816;2022-08-20T10:56:05;21.90;99.90
546;DHT22;259;53.304;9.816;2022-08-20T10:58:31;21.90;99.90
546;DHT22;259;53.304;9.816;2022-08-20T11:00:56;21.90;99.90
546;DHT22;259;53.304;9.816;2022-08-20T11:03:22;21.90;99.90
546;DHT22;259;53.304;9.816;2022-08-20T11:05:48;21.90;99.90
546;DHT22;259;53.304;9.816;2022-08-20T11:08:13;21.90;99.90
546;DHT22;259;53.304;9.816;2022-08-20T11:10:39;21.90;99.90
546;DHT22;259;53.304;9.816;2022-08-20T11:13:06;21.90;99.90
546;DHT22;259;53.304;9.816;2022-08-20T11:15:36;21.90;99.90
546;DHT22;259;53.304;9.816;2022-08-20T11:18:02;21.90;99.90
546;DHT22;259;53.304;9.816;2022-08-20T11:20:28;21.90;99.90
546;DHT22;259;53.304;9.816;2022-08-20T11:22:56;21.90;99.90
546;DHT22;259;53.304;9.816;2022-08-20T11:25:22;21.90;99.90
546;DHT22;259;53.304;9.816;2022-08-20T11:27:50;21.90;99.90
546;DHT22;259;53.304;9.816;2022-08-20T11:30:24;22.00;99.90
546;DHT22;259;53.304;9.816;2022-08-20T11:32:51;22.00;99.90
546;DHT22;259;53.304;9.816;2022-08-20T11:35:16;22.00;99.90
546;DHT22;259;53.304;9.816;2022-08-20T11:37:43;22.00;99.90
546;DHT22;259;53.304;9.816;2022-08-20T11:40:09;22.00;99.90
546;DHT22;259;53.304;9.816;2022-08-20T11:42:37;22.00;99.90
546;DHT22;259;53.304;9.816;2022-08-20T11:45:04;22.00;99.90
546;DHT22;259;53.304;9.816;2022-08-20T11:47:30;22.00;99.90
546;DHT22;259;53.304;9.816;2022-08-20T11:50:04;22.00;99.90
546;DHT22;259;53.304;9.816;2022-08-20T11:52:30;22.00;99.90
546;DHT22;259;53.304;9.816;2022-08-20T11:54:57;22.00;99.90
546;DHT22;259;53.304;9.816;2022-08-20T11:57:28;22.10;99.90
546;DHT22;259;53.304;9.816;2022-08-20T11:59:56;22.10;99.90
546;DHT22;259;53.304;9.816;2022-08-20T12:02:21;22.00;99.90
546;DHT22;259;53.304;9.816;2022-08-20T12:04:47;22.10;99.90
546;DHT22;259;53.304;9.816;2022-08-20T12:07:16;22.10;99.90
546;DHT22;259;53.304;9.816;2022-08-20T12:09:43;22.10;99.90
546;DHT22;259;53.304;9.816;2022-08-20T12:12:09;22.10;99.90
546;DHT22;259;53.304;9.816;2022-08-20T12:14:35;22.10;99.90
546;DHT22;259;53.304;9.816;2022-08-20T12:19:39;22.20;99.90
546;DHT22;259;53.304;9.816;2022-08-20T12:22:05;22.20;99.50
546;DHT22;259;53.304;9.816;2022-08-20T12:24:30;22.20;99.30
546;DHT22;259;53.304;9.816;2022-08-20T12:27:10;22.20;99.80
546;DHT22;259;53.304;9.816;2022-08-20T12:29:38;22.20;99.00
546;DHT22;259;53.304;9.816;2022-08-20T12:32:05;22.20;98.20
546;DHT22;259;53.304;9.816;2022-08-20T12:34:35;22.20;99.00
546;DHT22;259;53.304;9.816;2022-08-20T12:37:03;22.20;98.40
546;DHT22;259;53.304;9.816;2022-08-20T12:39:30;22.30;98.40
546;DHT22;259;53.304;9.816;2022-08-20T12:41:58;22.30;97.50
546;DHT22;259;53.304;9.816;2022-08-20T12:44:25;22.30;98.20
546;DHT22;259;53.304;9.816;2022-08-20T12:46:50;22.40;97.70
546;DHT22;259;53.304;9.816;2022-08-20T12:49:16;22.40;97.90
546;DHT22;259;53.304;9.816;2022-08-20T12:51:42;22.50;97.30
546;DHT22;259;53.304;9.816;2022-08-20T12:54:07;22.50;97.90
546;DHT22;259;53.304;9.816;2022-08-20T12:56:33;22.50;96.60
546;DHT22;259;53.304;9.816;2022-08-20T12:58:58;22.60;96.30
546;DHT22;259;53.304;9.816;2022-08-20T13:01:24;22.60;96.80
546;DHT22;259;53.304;9.816;2022-08-20T13:03:49;22.60;96.60
546;DHT22;259;53.304;9.816;2022-08-20T13:06:15;22.60;96.20
546;DHT22;259;53.304;9.816;2022-08-20T13:08:40;22.70;95.80
546;DHT22;259;53.304;9.816;2022-08-20T13:11:06;22.70;95.60
546;DHT22;259;53.304;9.816;2022-08-20T13:13:32;22.80;95.50
546;DHT22;259;53.304;9.816;2022-08-20T13:15:57;22.80;95.70
546;DHT22;259;53.304;9.816;2022-08-20T13:18:23;22.90;95.20
546;DHT22;259;53.304;9.816;2022-08-20T13:20:48;22.90;94.90
546;DHT22;259;53.304;9.816;2022-08-20T13:23:14;23.00;94.70
546;DHT22;259;53.304;9.816;2022-08-20T13:25:39;23.00;94.50
546;DHT22;259;53.304;9.816;2022-08-20T13:28:05;23.10;93.70
546;DHT22;259;53.304;9.816;2022-08-20T13:30:32;23.10;94.70
546;DHT22;259;53.304;9.816;2022-08-20T13:32:58;23.10;94.20
546;DHT22;259;53.304;9.816;2022-08-20T13:35:24;23.10;91.80
546;DHT22;259;53.304;9.816;2022-08-20T13:37:50;23.20;93.80
546;DHT22;259;53.304;9.816;2022-08-20T13:40:16;23.20;93.60
546;DHT22;259;53.304;9.816;2022-08-20T13:42:41;23.20;93.70
546;DHT22;259;53.304;9.816;2022-08-20T13:45:07;23.30;93.10
546;DHT22;259;53.304;9.816;2022-08-20T13:47:35;23.30;94.50
546;DHT22;259;53.304;9.816;2022-08-20T13:52:32;23.20;93.40
546;DHT22;259;53.304;9.816;2022-08-20T13:54:58;23.20;94.40
546;DHT22;259;53.304;9.816;2022-08-20T13:57:24;23.20;93.00
546;DHT22;259;53.304;9.816;2022-08-20T13:59:54;23.20;93.80
546;DHT22;259;53.304;9.816;2022-08-20T14:02:20;23.30;92.90
546;DHT22;259;53.304;9.816;2022-08-20T14:04:47;23.30;93.30
546;DHT22;259;53.304;9.816;2022-08-20T14:07:25;23.40;92.70
546;DHT22;259;53.304;9.816;2022-08-20T14:09:57;23.50;93.00
546;DHT22;259;53.304;9.816;2022-08-20T14:12:24;23.50;93.40
546;DHT22;259;53.304;9.816;2022-08-20T14:14:51;23.60;93.10
546;DHT22;259;53.304;9.816;2022-08-20T14:19:43;23.70;92.40
546;DHT22;259;53.304;9.816;2022-08-20T14:22:09;23.70;91.40
546;DHT22;259;53.304;9.816;2022-08-20T14:24:34;23.80;91.30
546;DHT22;259;53.304;9.816;2022-08-20T14:27:03;23.80;91.70
546;DHT22;259;53.304;9.816;2022-08-20T14:29:34;23.90;92.40
546;DHT22;259;53.304;9.816;2022-08-20T14:32:01;23.90;92.80
546;DHT22;259;53.304;9.816;2022-08-20T14:34:27;24.00;92.40
546;DHT22;259;53.304;9.816;2022-08-20T14:36:52;24.00;91.30
546;DHT22;259;53.304;9.816;2022-08-20T14:39:18;24.10;91.40
546;DHT22;259;53.304;9.816;2022-08-20T14:41:43;24.10;90.40
546;DHT22;259;53.304;9.816;2022-08-20T14:44:09;24.10;90.30
546;DHT22;259;53.304;9.816;2022-08-20T14:46:34;24.10;90.10
546;DHT22;259;53.304;9.816;2022-08-20T14:49:00;24.10;89.00
546;DHT22;259;53.304;9.816;2022-08-20T14:51:25;24.10;89.20
546;DHT22;259;53.304;9.816;2022-08-20T14:53:51;24.20;89.90
546;DHT22;259;53.304;9.816;2022-08-20T14:56:17;24.20;90.00
546;DHT22;259;53.304;9.816;2022-08-20T14:58:43;24.20;90.10
546;DHT22;259;53.304;9.816;2022-08-20T15:01:08;24.30;90.10
546;DHT22;259;53.304;9.816;2022-08-20T15:03:34;24.40;88.70
546;DHT22;259;53.304;9.816;2022-08-20T15:05:59;24.40;88.10
546;DHT22;259;53.304;9.816;2022-08-20T15:08:25;24.50;88.20
546;DHT22;259;53.304;9.816;2022-08-20T15:10:51;24.50;87.60
546;DHT22;259;53.304;9.816;2022-08-20T15:13:16;24.50;87.40
546;DHT22;259;53.304;9.816;2022-08-20T15:15:43;24.60;87.20
546;DHT22;259;53.304;9.816;2022-08-20T15:18:08;24.60;87.60
546;DHT22;259;53.304;9.816;2022-08-20T15:20:35;24.60;86.70
546;DHT22;259;53.304;9.816;2022-08-20T15:23:01;24.70;85.80
546;DHT22;259;53.304;9.816;2022-08-20T15:25:28;24.70;80.10
546;DHT22;259;53.304;9.816;2022-08-20T15:27:58;24.70;85.10
546;DHT22;259;53.304;9.816;2022-08-20T15:30:26;24.60;83.40
546;DHT22;259;53.304;9.816;2022-08-20T15:32:52;24.70;84.10
546;DHT22;259;53.304;9.816;2022-08-20T15:35:18;24.70;85.30
546;DHT22;259;53.304;9.816;2022-08-20T15:37:47;24.70;85.70
546;DHT22;259;53.304;9.816;2022-08-20T15:40:16;24.70;85.70
546;DHT22;259;53.304;9.816;2022-08-20T15:42:43;24.70;84.30
546;DHT22;259;53.304;9.816;2022-08-20T15:45:10;24.70;84.20
546;DHT22;259;53.304;9.816;2022-08-20T15:47:58;24.60;82.80
546;DHT22;259;53.304;9.816;2022-08-20T15:53:27;24.50;82.80
546;DHT22;259;53.304;9.816;2022-08-20T15:56:06;24.40;83.20
546;DHT22;259;53.304;9.816;2022-08-20T15:58:41;24.40;81.80
546;DHT22;259;53.304;9.816;2022-08-20T16:04:02;24.30;79.70
546;DHT22;259;53.304;9.816;2022-08-20T16:06:31;24.20;81.10
546;DHT22;259;53.304;9.816;2022-08-20T16:09:11;24.20;80.90
546;DHT22;259;53.304;9.816;2022-08-20T16:11:51;24.20;81.00
546;DHT22;259;53.304;9.816;2022-08-20T16:14:24;24.20;80.40
546;DHT22;259;53.304;9.816;2022-08-20T16:16:55;24.20;80.00
546;DHT22;259;53.304;9.816;2022-08-20T16:19:26;24.20;79.20
546;DHT22;259;53.304;9.816;2022-08-20T16:21:53;24.20;79.40
546;DHT22;259;53.304;9.816;2022-08-20T16:24:20;24.10;78.80
546;DHT22;259;53.304;9.816;2022-08-20T16:29:44;24.10;77.90
546;DHT22;259;53.304;9.816;2022-08-20T16:34:49;24.10;78.60
546;DHT22;259;53.304;9.816;2022-08-20T16:42:46;24.00;77.70
546;DHT22;259;53.304;9.816;2022-08-20T16:45:36;24.00;77.60
546;DHT22;259;53.304;9.816;2022-08-20T16:48:05;24.00;77.70
546;DHT22;259;53.304;9.816;2022-08-20T16:50:39;24.00;77.40
546;DHT22;259;53.304;9.816;2022-08-20T16:53:15;23.90;77.10
546;DHT22;259;53.304;9.816;2022-08-20T16:55:41;23.90;77.10
546;DHT22;259;53.304;9.816;2022-08-20T16:58:07;23.80;76.60
546;DHT22;259;53.304;9.816;2022-08-20T17:00:33;23.70;76.60
546;DHT22;259;53.304;9.816;2022-08-20T17:03:06;23.70;75.80
546;DHT22;259;53.304;9.816;2022-08-20T17:05:52;23.70;76.10
546;DHT22;259;53.304;9.816;2022-08-20T17:08:25;23.60;75.80
546;DHT22;259;53.304;9.816;2022-08-20T17:11:13;23.50;75.40